Time;durP1;ratioP1;P1;durP2;ratioP2;P2;SDS_P1;SDS_P2;PMS_P1;PMS_P2;Temp;Humidity;BMP_temperature;BMP_pressure;BME280_temperature;BME280_humidity;BME280_pressure;Samples;Min_cycle;Max_cycle;Signal;HPM_P1;HPM_P2
2022/02/10 00:13:41;;;;;;;;;;;6.00;99.90;;;;;;5013326;28;19997;-93
2022/02/10 00:19:15;;;;;;;;;;;6.10;99.90;;;;;;5019147;28;19917;-91
2022/02/10 00:21:59;;;;;;;;;;;6.20;99.90;;;;;;5004065;28;19909;-92
2022/02/10 00:35:22;;;;;;;;;;;6.40;99.90;;;;;;5016457;28;19972;-91
2022/02/10 00:37:58;;;;;;;;;;;6.40;99.90;;;;;;5021218;28;20144;-93
2022/02/10 00:40:27;;;;;;;;;;;6.50;99.90;;;;;;5014988;28;19910;-92
2022/02/10 00:42:57;;;;;;;;;;;6.50;99.90;;;;;;5002517;28;20102;-92
2022/02/10 00:45:25;;;;;;;;;;;6.60;99.90;;;;;;5012550;28;20350;-92
2022/02/10 00:47:57;;;;;;;;;;;6.70;99.90;;;;;;5006349;28;20436;-92
2022/02/10 00:50:24;;;;;;;;;;;6.70;99.90;;;;;;5004290;28;20008;-90
2022/02/10 00:52:57;;;;;;;;;;;6.80;99.90;;;;;;5009050;28;19910;-93
2022/02/10 00:55:27;;;;;;;;;;;6.90;99.90;;;;;;5013124;28;19913;-92
2022/02/10 00:57:52;;;;;;;;;;;6.90;99.90;;;;;;5015013;28;19913;-92
2022/02/10 01:11:30;;;;;;;;;;;7.20;99.90;;;;;;5016226;28;19916;-92
2022/02/10 01:14:01;;;;;;;;;;;7.30;99.90;;;;;;5011048;28;20456;-92
2022/02/10 01:30:12;;;;;;;;;;;7.60;99.90;;;;;;5016746;28;20109;-92
2022/02/10 01:32:38;;;;;;;;;;;7.70;99.90;;;;;;4999575;28;20398;-91
2022/02/10 01:35:07;;;;;;;;;;;7.70;99.90;;;;;;5010778;28;20020;-91
2022/02/10 01:37:34;;;;;;;;;;;7.70;99.90;;;;;;5004112;28;19909;-91
2022/02/10 01:40:09;;;;;;;;;;;7.70;99.90;;;;;;5004536;28;19910;-91
2022/02/10 02:04:16;;;;;;;;;;;7.90;99.90;;;;;;5016154;28;20290;-92
2022/02/10 02:06:44;;;;;;;;;;;7.90;99.90;;;;;;5017971;28;19905;-91
2022/02/10 02:09:13;;;;;;;;;;;7.90;99.90;;;;;;5000260;28;20106;-93
2022/02/10 02:11:41;;;;;;;;;;;7.90;99.90;;;;;;4997473;28;19962;-90
2022/02/10 02:14:08;;;;;;;;;;;7.90;99.90;;;;;;5017513;28;19944;-91
2022/02/10 02:16:33;;;;;;;;;;;7.90;99.90;;;;;;5001257;28;19941;-93
2022/02/10 02:18:59;;;;;;;;;;;7.90;99.90;;;;;;5016659;28;19944;-93
2022/02/10 02:21:25;;;;;;;;;;;7.90;99.90;;;;;;5016509;28;19937;-93
2022/02/10 02:23:51;;;;;;;;;;;8.00;99.90;;;;;;5018749;28;20225;-93
2022/02/10 02:26:23;;;;;;;;;;;8.00;99.90;;;;;;5005307;28;19909;-91
2022/02/10 02:28:53;;;;;;;;;;;8.00;99.90;;;;;;5011389;28;20194;-90
2022/02/10 02:31:22;;;;;;;;;;;7.90;99.90;;;;;;5019969;28;19910;-93
2022/02/10 02:39:50;;;;;;;;;;;7.90;99.90;;;;;;5023222;28;20373;-92
2022/02/10 03:06:34;;;;;;;;;;;7.90;99.90;;;;;;5008378;28;19911;-92
2022/02/10 03:09:05;;;;;;;;;;;7.80;99.90;;;;;;5019128;28;19906;-94
2022/02/10 03:11:31;;;;;;;;;;;7.90;99.90;;;;;;5020197;28;19909;-90
2022/02/10 03:14:02;;;;;;;;;;;7.90;99.90;;;;;;5006791;28;20402;-91
2022/02/10 03:19:03;;;;;;;;;;;7.80;99.90;;;;;;5016997;28;20378;-90
2022/02/10 03:21:49;;;;;;;;;;;7.70;99.90;;;;;;5010730;28;19910;-91
2022/02/10 04:08:30;;;;;;;;;;;7.10;99.90;;;;;;5019603;28;19915;-91
2022/02/10 04:16:19;;;;;;;;;;;7.00;99.90;;;;;;5018080;28;19955;-93
2022/02/10 04:54:08;;;;;;;;;;;7.10;99.90;;;;;;5017911;28;19916;-90
2022/02/10 04:58:59;;;;;;;;;;;7.10;99.90;;;;;;5015822;28;19910;-91
2022/02/10 05:04:41;;;;;;;;;;;7.10;99.90;;;;;;5018154;28;19914;-90
2022/02/10 05:15:44;;;;;;;;;;;7.10;99.90;;;;;;4969165;28;19928;-92
2022/02/10 05:23:21;;;;;;;;;;;7.10;99.90;;;;;;5019278;28;19905;-91
2022/02/10 05:33:54;;;;;;;;;;;7.20;99.90;;;;;;5015821;28;19953;-92
2022/02/10 05:36:24;;;;;;;;;;;7.20;99.90;;;;;;5015269;28;19909;-91
2022/02/10 05:38:57;;;;;;;;;;;7.20;99.90;;;;;;5002729;28;19984;-92
2022/02/10 05:44:28;;;;;;;;;;;7.40;99.90;;;;;;5015683;28;19909;-91
2022/02/10 05:54:45;;;;;;;;;;;7.40;99.90;;;;;;5021339;28;19921;-92
2022/02/10 06:48:53;;;;;;;;;;;7.50;99.90;;;;;;5023313;28;19913;-94
2022/02/10 06:51:45;;;;;;;;;;;7.50;99.90;;;;;;5024503;28;19905;-93
2022/02/10 07:04:45;;;;;;;;;;;7.50;99.90;;;;;;5024456;28;19951;-91
2022/02/10 08:26:38;;;;;;;;;;;8.30;99.90;;;;;;5013808;28;19956;-92
2022/02/10 08:27:56;;;;;;;;;;;8.40;99.90;;;;;;5012330;28;20401;-94
2022/02/10 08:55:56;;;;;;;;;;;8.30;99.90;;;;;;5012674;28;20069;-93
2022/02/10 08:58:45;;;;;;;;;;;8.40;99.90;;;;;;5002504;28;19941;-94
2022/02/10 09:09:50;;;;;;;;;;;8.50;99.90;;;;;;5012953;28;19959;-92
2022/02/10 09:51:29;;;;;;;;;;;9.10;99.90;;;;;;5012755;28;20120;-92
2022/02/10 10:00:23;;;;;;;;;;;9.30;99.90;;;;;;5012468;28;19909;-93
2022/02/10 10:03:07;;;;;;;;;;;9.40;99.90;;;;;;5011946;28;19996;-94
2022/02/10 10:05:39;;;;;;;;;;;9.40;99.90;;;;;;5010493;28;19910;-94
2022/02/10 10:08:27;;;;;;;;;;;9.50;99.90;;;;;;5010235;28;20279;-93
2022/02/10 10:11:28;;;;;;;;;;;9.50;99.90;;;;;;5011693;28;19955;-92
2022/02/10 10:14:25;;;;;;;;;;;9.50;99.90;;;;;;5006895;28;19916;-93
2022/02/10 10:17:24;;;;;;;;;;;9.60;99.90;;;;;;5009878;28;19913;-94
2022/02/10 10:25:46;;;;;;;;;;;9.60;99.90;;;;;;5012220;28;20267;-94
2022/02/10 10:53:16;;;;;;;;;;;9.50;99.90;;;;;;5015425;28;19909;-93
2022/02/10 10:55:57;;;;;;;;;;;9.50;99.90;;;;;;4996986;28;19968;-92
2022/02/10 11:38:07;;;;;;;;;;;10.30;99.90;;;;;;5014072;28;19916;-93
2022/02/10 11:40:53;;;;;;;;;;;10.30;99.90;;;;;;4997556;28;19960;-91
2022/02/10 11:43:48;;;;;;;;;;;10.40;99.90;;;;;;5013561;28;19909;-92
2022/02/10 12:00:39;;;;;;;;;;;10.60;99.90;;;;;;5009154;28;20286;-91
2022/02/10 12:39:22;;;;;;;;;;;11.70;99.90;;;;;;5013123;28;20012;-92
2022/02/10 13:23:39;;;;;;;;;;;11.20;99.90;;;;;;5013035;28;19920;-90
2022/02/10 14:14:53;;;;;;;;;;;11.70;99.90;;;;;;5011658;28;20388;-93
2022/02/10 14:17:30;;;;;;;;;;;11.60;99.90;;;;;;5010159;28;19914;-92
2022/02/10 14:20:00;;;;;;;;;;;11.60;99.90;;;;;;5002679;28;19929;-94
2022/02/10 14:27:44;;;;;;;;;;;11.80;99.90;;;;;;5015978;28;19979;-92
2022/02/10 14:30:10;;;;;;;;;;;11.80;99.90;;;;;;5010955;28;20382;-93
2022/02/10 14:32:41;;;;;;;;;;;11.80;99.90;;;;;;5022394;28;19936;-92
2022/02/10 14:35:14;;;;;;;;;;;11.80;99.90;;;;;;5028748;28;19921;-93
2022/02/10 14:40:54;;;;;;;;;;;11.80;99.90;;;;;;5034830;28;19910;-92
2022/02/10 15:10:54;;;;;;;;;;;11.80;99.90;;;;;;5033732;28;19910;-92
2022/02/10 15:21:37;;;;;;;;;;;11.50;99.90;;;;;;5034753;28;19964;-93
2022/02/10 16:18:10;;;;;;;;;;;12.30;99.90;;;;;;5015403;28;20462;-91
2022/02/10 16:20:36;;;;;;;;;;;12.20;99.90;;;;;;5003266;28;19932;-93
2022/02/10 16:23:07;;;;;;;;;;;12.20;99.90;;;;;;5014512;28;19980;-93
2022/02/10 16:25:38;;;;;;;;;;;12.10;99.90;;;;;;5003325;28;20333;-93
2022/02/10 16:28:24;;;;;;;;;;;12.00;99.90;;;;;;5013813;28;20289;-93
2022/02/10 16:30:49;;;;;;;;;;;11.90;99.90;;;;;;4999320;28;19917;-94
2022/02/10 16:33:15;;;;;;;;;;;11.90;99.90;;;;;;5014657;28;19913;-92
2022/02/10 16:35:42;;;;;;;;;;;11.90;99.90;;;;;;5004302;28;19924;-93
2022/02/10 16:38:08;;;;;;;;;;;11.90;99.90;;;;;;4996821;28;19924;-93
2022/02/10 16:40:34;;;;;;;;;;;11.90;99.90;;;;;;4998297;28;19910;-93
2022/02/10 16:43:00;;;;;;;;;;;11.80;99.90;;;;;;5009939;28;19909;-94
2022/02/10 16:45:27;;;;;;;;;;;11.80;99.90;;;;;;5009382;28;19992;-92
2022/02/10 16:47:53;;;;;;;;;;;11.70;99.90;;;;;;5005178;28;19910;-94
2022/02/10 16:50:19;;;;;;;;;;;11.60;99.90;;;;;;4997236;28;19913;-94
2022/02/10 16:52:48;;;;;;;;;;;11.50;99.90;;;;;;5014034;28;19909;-94
2022/02/10 16:58:13;;;;;;;;;;;11.30;99.90;;;;;;5018332;28;19931;-94
2022/02/10 17:03:39;;;;;;;;;;;11.20;99.90;;;;;;5014538;28;20216;-94
2022/02/10 17:14:06;;;;;;;;;;;11.10;99.90;;;;;;5009485;28;19910;-94
2022/02/10 17:25:32;;;;;;;;;;;10.80;99.90;;;;;;5013742;28;19957;-94
2022/02/10 17:27:53;;;;;;;;;;;10.80;99.90;;;;;;5011059;28;20282;-94
2022/02/10 17:44:16;;;;;;;;;;;10.50;99.90;;;;;;5013633;28;19964;-93
2022/02/10 17:54:22;;;;;;;;;;;10.30;99.90;;;;;;5013158;28;19917;-93
2022/02/10 17:56:48;;;;;;;;;;;10.30;99.90;;;;;;4999858;28;19941;-93
2022/02/10 17:59:14;;;;;;;;;;;10.20;99.90;;;;;;5002295;28;19920;-94
2022/02/10 18:01:39;;;;;;;;;;;10.20;99.90;;;;;;5019225;28;19910;-92
2022/02/10 18:04:05;;;;;;;;;;;10.20;99.90;;;;;;5008330;28;20020;-92
2022/02/10 18:06:35;;;;;;;;;;;10.20;99.90;;;;;;5013365;28;20413;-93
2022/02/10 18:17:46;;;;;;;;;;;10.20;99.90;;;;;;5021375;28;20267;-92
2022/02/10 18:19:46;;;;;;;;;;;10.10;99.90;;;;;;5005053;28;19928;-92
2022/02/10 18:22:28;;;;;;;;;;;10.10;99.90;;;;;;5009238;28;19909;-92
2022/02/10 18:27:28;;;;;;;;;;;10.10;99.90;;;;;;5019057;28;19971;-92
2022/02/10 19:07:51;;;;;;;;;;;10.20;99.90;;;;;;5028544;28;19905;-94
2022/02/10 19:10:23;;;;;;;;;;;10.20;99.90;;;;;;5005036;28;19909;-91
2022/02/10 19:13:03;;;;;;;;;;;10.10;99.90;;;;;;5018952;28;19910;-95
2022/02/10 19:15:35;;;;;;;;;;;10.10;99.90;;;;;;5013218;28;20302;-95
2022/02/10 19:18:05;;;;;;;;;;;10.10;99.90;;;;;;5024227;28;19976;-93
2022/02/10 19:20:32;;;;;;;;;;;10.10;99.90;;;;;;5011123;28;19917;-93
2022/02/10 19:22:58;;;;;;;;;;;10.10;99.90;;;;;;5013440;28;19909;-93
2022/02/10 19:25:23;;;;;;;;;;;10.10;99.90;;;;;;5011646;28;19916;-94
2022/02/10 19:27:49;;;;;;;;;;;10.10;99.90;;;;;;5011636;28;19916;-93
2022/02/10 19:30:16;;;;;;;;;;;10.20;99.90;;;;;;5015686;28;19916;-93
2022/02/10 19:32:52;;;;;;;;;;;10.20;99.90;;;;;;5015210;28;20004;-93
2022/02/10 19:35:21;;;;;;;;;;;10.20;99.90;;;;;;4999404;28;20007;-95
2022/02/10 19:37:52;;;;;;;;;;;10.20;99.90;;;;;;5010860;28;19917;-95
2022/02/10 19:40:18;;;;;;;;;;;10.20;99.90;;;;;;5004176;28;19917;-94
2022/02/10 19:42:46;;;;;;;;;;;10.20;99.90;;;;;;5001421;28;19914;-92
2022/02/10 19:45:12;;;;;;;;;;;10.20;99.90;;;;;;4999531;28;19906;-93
2022/02/10 19:47:38;;;;;;;;;;;10.20;99.90;;;;;;5009778;28;19952;-93
2022/02/10 19:50:10;;;;;;;;;;;10.20;99.90;;;;;;5019495;28;19973;-94
2022/02/10 19:52:41;;;;;;;;;;;10.10;99.90;;;;;;5009441;28;20052;-94
2022/02/10 19:55:10;;;;;;;;;;;10.10;99.90;;;;;;5011375;28;19919;-94
2022/02/10 19:57:38;;;;;;;;;;;10.10;99.90;;;;;;5023591;28;19964;-94
2022/02/10 20:00:11;;;;;;;;;;;10.00;99.90;;;;;;5011247;28;19906;-94
2022/02/10 20:02:37;;;;;;;;;;;10.00;99.90;;;;;;5021104;28;19972;-93
2022/02/10 20:05:03;;;;;;;;;;;9.90;99.90;;;;;;5013255;28;19910;-94
2022/02/10 20:07:29;;;;;;;;;;;9.90;99.90;;;;;;5014417;28;19905;-94
2022/02/10 20:09:54;;;;;;;;;;;9.90;99.90;;;;;;5014182;28;19937;-93
2022/02/10 20:12:20;;;;;;;;;;;9.90;99.90;;;;;;5013182;28;20078;-95
2022/02/10 20:14:51;;;;;;;;;;;9.80;99.90;;;;;;5022813;28;19920;-93
2022/02/10 20:17:19;;;;;;;;;;;9.80;99.90;;;;;;5008457;28;19969;-93
2022/02/10 20:19:47;;;;;;;;;;;9.90;99.90;;;;;;5007514;28;19918;-95
2022/02/10 20:22:15;;;;;;;;;;;9.80;99.90;;;;;;5011998;28;19906;-96
2022/02/10 20:24:43;;;;;;;;;;;9.80;99.90;;;;;;5019556;28;19906;-95
2022/02/10 20:27:11;;;;;;;;;;;9.80;99.90;;;;;;4993743;28;19955;-94
2022/02/10 20:29:37;;;;;;;;;;;9.70;99.90;;;;;;4999404;28;19905;-92
2022/02/10 20:32:02;;;;;;;;;;;9.70;99.90;;;;;;5012246;28;19964;-93
2022/02/10 20:34:31;;;;;;;;;;;9.60;99.90;;;;;;5018018;28;20016;-94
2022/02/10 20:36:58;;;;;;;;;;;9.60;99.90;;;;;;5010859;28;19906;-95
2022/02/10 20:39:28;;;;;;;;;;;9.60;99.90;;;;;;5025955;28;19902;-93
2022/02/10 20:42:05;;;;;;;;;;;9.60;99.90;;;;;;5013887;28;19906;-93
2022/02/10 20:44:32;;;;;;;;;;;9.60;99.90;;;;;;5012705;28;19929;-95
2022/02/10 20:46:58;;;;;;;;;;;9.60;99.90;;;;;;5016656;28;19913;-93
2022/02/10 20:49:27;;;;;;;;;;;9.60;99.90;;;;;;5022902;28;19944;-95
2022/02/10 20:51:56;;;;;;;;;;;9.50;99.90;;;;;;5007227;28;19912;-92
2022/02/10 20:54:26;;;;;;;;;;;9.60;99.90;;;;;;5012362;28;19906;-96
2022/02/10 20:56:55;;;;;;;;;;;9.50;99.90;;;;;;5012618;28;20013;-92
2022/02/10 20:59:38;;;;;;;;;;;9.50;99.90;;;;;;4996154;28;20366;-95
2022/02/10 21:02:11;;;;;;;;;;;9.40;99.90;;;;;;5013385;28;19941;-92
2022/02/10 21:04:44;;;;;;;;;;;9.40;99.90;;;;;;5006089;28;19909;-94
2022/02/10 21:10:05;;;;;;;;;;;9.40;99.90;;;;;;5008183;28;19917;-94
2022/02/10 21:12:36;;;;;;;;;;;9.30;99.90;;;;;;5000974;28;19920;-94
2022/02/10 21:15:04;;;;;;;;;;;9.30;99.90;;;;;;5007820;28;19936;-94
2022/02/10 21:17:31;;;;;;;;;;;9.30;99.90;;;;;;4999444;28;19921;-94
2022/02/10 21:20:03;;;;;;;;;;;9.30;99.90;;;;;;5021905;28;19932;-93
2022/02/10 21:22:47;;;;;;;;;;;9.20;99.90;;;;;;5016505;28;19973;-95
2022/02/10 21:25:23;;;;;;;;;;;9.20;99.90;;;;;;4995418;28;20447;-93
2022/02/10 21:27:51;;;;;;;;;;;9.20;99.90;;;;;;4996024;28;20009;-94
2022/02/10 21:30:18;;;;;;;;;;;9.10;99.90;;;;;;5005283;28;20004;-94
2022/02/10 21:32:51;;;;;;;;;;;9.10;99.90;;;;;;5011619;28;19909;-94
2022/02/10 21:35:27;;;;;;;;;;;9.10;99.90;;;;;;4994629;28;19940;-94
2022/02/10 21:41:16;;;;;;;;;;;9.10;99.90;;;;;;5002950;28;19948;-95
2022/02/10 22:21:04;;;;;;;;;;;8.60;99.90;;;;;;5012155;28;19925;-94
2022/02/10 22:23:33;;;;;;;;;;;8.60;99.90;;;;;;5001258;28;19944;-92
2022/02/10 22:26:02;;;;;;;;;;;8.60;99.90;;;;;;4994952;28;19945;-91
2022/02/10 22:36:18;;;;;;;;;;;8.40;99.90;;;;;;5010963;28;19971;-94
2022/02/10 22:38:49;;;;;;;;;;;8.50;99.90;;;;;;5004386;28;20392;-93
2022/02/10 22:41:15;;;;;;;;;;;8.50;99.90;;;;;;5005308;28;19914;-95
2022/02/10 22:43:42;;;;;;;;;;;8.40;99.90;;;;;;4993640;28;19920;-91
2022/02/10 22:46:08;;;;;;;;;;;8.40;99.90;;;;;;4997212;28;19913;-94
2022/02/10 22:48:34;;;;;;;;;;;8.50;99.90;;;;;;4997146;28;19956;-93
2022/02/10 22:51:00;;;;;;;;;;;8.40;99.90;;;;;;4996856;28;19910;-92
2022/02/10 22:53:26;;;;;;;;;;;8.40;99.90;;;;;;4997752;28;20428;-92
2022/02/10 22:55:51;;;;;;;;;;;8.40;99.90;;;;;;5014741;28;19944;-92
2022/02/10 22:58:17;;;;;;;;;;;8.40;99.90;;;;;;4996906;28;20004;-96
2022/02/10 23:00:49;;;;;;;;;;;8.40;99.90;;;;;;5006545;28;20401;-93
2022/02/10 23:03:16;;;;;;;;;;;8.40;99.90;;;;;;5012388;28;19909;-93
2022/02/10 23:05:41;;;;;;;;;;;8.40;99.90;;;;;;5012488;28;19962;-92
2022/02/10 23:08:07;;;;;;;;;;;8.40;99.90;;;;;;4996895;28;20000;-93
2022/02/10 23:13:08;;;;;;;;;;;8.30;99.90;;;;;;5009234;28;19983;-94
2022/02/10 23:15:37;;;;;;;;;;;8.30;99.90;;;;;;5002694;28;20460;-92
2022/02/10 23:18:06;;;;;;;;;;;8.30;99.90;;;;;;5014573;28;19916;-93
2022/02/10 23:20:32;;;;;;;;;;;8.30;99.90;;;;;;4996563;28;19925;-94
2022/02/10 23:22:58;;;;;;;;;;;8.30;99.90;;;;;;4996544;28;20374;-93
2022/02/10 23:25:26;;;;;;;;;;;8.30;99.90;;;;;;4996577;28;19916;-93
2022/02/10 23:27:51;;;;;;;;;;;8.30;99.90;;;;;;5000461;28;19956;-96
2022/02/10 23:30:18;;;;;;;;;;;8.20;99.90;;;;;;5012401;28;19948;-94
2022/02/10 23:32:44;;;;;;;;;;;8.20;99.90;;;;;;4997187;28;19965;-92
2022/02/10 23:35:30;;;;;;;;;;;8.20;99.90;;;;;;5012368;28;19925;-93
2022/02/10 23:37:55;;;;;;;;;;;8.20;99.90;;;;;;5014131;28;20413;-94
2022/02/10 23:40:21;;;;;;;;;;;8.20;99.90;;;;;;5011654;28;20000;-95
2022/02/10 23:42:51;;;;;;;;;;;8.20;99.90;;;;;;5011982;28;19916;-94
2022/02/10 23:45:22;;;;;;;;;;;8.20;99.90;;;;;;5007127;28;19909;-93
2022/02/10 23:47:48;;;;;;;;;;;8.20;99.90;;;;;;5008020;28;19956;-96
2022/02/10 23:50:17;;;;;;;;;;;8.20;99.90;;;;;;5012061;28;19909;-93
2022/02/10 23:52:43;;;;;;;;;;;8.20;99.90;;;;;;5006439;28;19964;-91
2022/02/10 23:55:17;;;;;;;;;;;8.30;99.90;;;;;;4995365;28;19953;-93
2022/02/10 23:57:54;;;;;;;;;;;8.30;99.90;;;;;;4995941;28;19920;-92
